Bookmark and Share
Track history (hours):
 

MV Causeway Supplier

Last reported at 2014-Apr-16 10:33 UTC. Time now 2014-Apr-16 16:05 UTC.
Position S 29°52' E 031°04'.

Length 22 m.

Type: Fishing. MMSI: 601041200.

NotesDate/timePositionNaut miles runAvg speedWind from/ knotsBaromVisibWave heightAir tempDewpointWater temp
2014-Apr-16 10:33S 29°52' E 031°04'3 1.5
2014-Apr-16 08:23S 29°52' E 031°08'7 7.3
2014-Apr-16 07:29S 29°54' E 031°00'0 0.2
2014-Apr-16 06:08S 29°54' E 031°00'7 0.3
2014-Apr-15 10:34S 29°50' E 031°07'2 2.2
2014-Apr-15 09:33S 29°51' E 031°09'3 3.1
2014-Apr-15 08:33S 29°48' E 031°10'2 0.8
2014-Apr-15 06:34S 29°50' E 031°10'9 8.2
2014-Apr-15 05:31S 29°52' E 031°01'2 0.1
2014-Apr-14 13:31S 29°54' E 031°00'0 0.0
2014-Apr-14 11:33S 29°54' E 031°00'0 0.0
2014-Apr-13 16:31S 29°54' E 031°00'0 0.0
2014-Apr-13 14:05S 29°54' E 031°00'0 0.0
2014-Apr-13 12:33S 29°54' E 031°00'0 0.0
2014-Apr-13 04:13S 29°54' E 031°00'0 0.0
2014-Apr-12 21:19S 29°54' E 031°00'0 0.0
2014-Apr-12 15:23S 29°54' E 031°00'0 0.0
2014-Apr-12 08:28S 29°54' E 031°00'7 7.9
2014-Apr-12 07:33S 29°51' E 031°08'3 3.3
2014-Apr-12 06:33S 29°50' E 031°12'3 3.0
2014-Apr-12 05:32S 29°52' E 031°08'7 0.6
2014-Apr-11 16:14S 29°54' E 031°00'0 0.0
2014-Apr-11 15:11S 29°54' E 031°00'2 0.5
2014-Apr-11 11:24S 29°52' E 031°01'6 6.3
2014-Apr-11 10:31S 29°53' E 031°08'6 1.5
2014-Apr-11 06:22S 29°54' E 031°00'0 0.0
2014-Apr-10 02:18S 29°54' E 031°00'0 0.0
2014-Apr-10 01:32S 29°54' E 031°00'0 0.0
2014-Apr-10 00:11S 29°54' E 031°00'0 0.0
2014-Apr-08 14:25S 29°54' E 031°00'  

Dump ship's entire track history

sailing weather and tide predictions

MV Causeway Supplier — ZR2426 — position and weather